sensor_id;sensor_type;location;lat;lon;timestamp;pressure;altitude;pressure_sealevel;temperature;humidity
57827;BME280;43656;57.746;11.780;2023-04-27T00:02:07;100737.88;;;8.93;59.41
57827;BME280;43656;57.746;11.780;2023-04-27T00:04:33;100712.50;;;8.74;59.49
57827;BME280;43656;57.746;11.780;2023-04-27T00:06:58;100739.72;;;8.92;59.89
57827;BME280;43656;57.746;11.780;2023-04-27T00:09:24;100736.59;;;8.89;60.17
57827;BME280;43656;57.746;11.780;2023-04-27T00:11:49;100732.03;;;8.89;60.21
57827;BME280;43656;57.746;11.780;2023-04-27T00:14:15;100734.88;;;8.66;60.66
57827;BME280;43656;57.746;11.780;2023-04-27T00:16:41;100745.75;;;8.80;60.88
57827;BME280;43656;57.746;11.780;2023-04-27T00:19:06;100743.53;;;8.83;59.96
57827;BME280;43656;57.746;11.780;2023-04-27T00:21:33;100743.84;;;8.74;59.98
57827;BME280;43656;57.746;11.780;2023-04-27T00:23:59;100746.50;;;8.74;59.94
57827;BME280;43656;57.746;11.780;2023-04-27T00:26:24;100735.84;;;8.59;59.93
57827;BME280;43656;57.746;11.780;2023-04-27T00:28:51;100740.97;;;8.75;59.38
57827;BME280;43656;57.746;11.780;2023-04-27T00:31:16;100743.16;;;8.86;59.62
57827;BME280;43656;57.746;11.780;2023-04-27T00:33:41;100750.97;;;8.81;58.79
57827;BME280;43656;57.746;11.780;2023-04-27T00:36:07;100750.13;;;8.81;58.47
57827;BME280;43656;57.746;11.780;2023-04-27T00:38:33;100757.25;;;8.74;57.45
57827;BME280;43656;57.746;11.780;2023-04-27T00:41:03;100740.53;;;8.72;58.81
57827;BME280;43656;57.746;11.780;2023-04-27T00:43:29;100755.16;;;8.54;58.93
57827;BME280;43656;57.746;11.780;2023-04-27T00:45:54;100746.63;;;8.65;58.82
57827;BME280;43656;57.746;11.780;2023-04-27T00:48:20;100744.78;;;8.66;59.19
57827;BME280;43656;57.746;11.780;2023-04-27T00:50:45;100746.81;;;8.64;58.82
57827;BME280;43656;57.746;11.780;2023-04-27T00:53:13;100750.72;;;8.61;58.54
57827;BME280;43656;57.746;11.780;2023-04-27T00:55:39;100747.38;;;8.59;58.53
57827;BME280;43656;57.746;11.780;2023-04-27T00:58:04;100751.34;;;8.78;58.03
57827;BME280;43656;57.746;11.780;2023-04-27T01:00:30;100735.38;;;8.55;59.11
57827;BME280;43656;57.746;11.780;2023-04-27T01:02:55;100727.50;;;8.54;58.38
57827;BME280;43656;57.746;11.780;2023-04-27T01:05:23;100749.50;;;8.64;58.74
57827;BME280;43656;57.746;11.780;2023-04-27T01:07:48;100747.38;;;8.59;57.32
57827;BME280;43656;57.746;11.780;2023-04-27T01:10:13;100744.78;;;8.36;57.70
57827;BME280;43656;57.746;11.780;2023-04-27T01:12:39;100756.47;;;8.43;57.98
57827;BME280;43656;57.746;11.780;2023-04-27T01:15:05;100748.66;;;8.63;57.40
57827;BME280;43656;57.746;11.780;2023-04-27T01:17:31;100747.38;;;8.59;57.63
57827;BME280;43656;57.746;11.780;2023-04-27T01:19:56;100742.84;;;8.60;57.73
57827;BME280;43656;57.746;11.780;2023-04-27T01:22:23;100750.00;;;8.53;57.85
57827;BME280;43656;57.746;11.780;2023-04-27T01:24:50;100727.06;;;8.35;58.69
57827;BME280;43656;57.746;11.780;2023-04-27T01:27:15;100754.22;;;8.62;58.05
57827;BME280;43656;57.746;11.780;2023-04-27T01:29:41;100741.56;;;8.56;57.75
57827;BME280;43656;57.746;11.780;2023-04-27T01:32:06;100748.22;;;8.60;58.41
57827;BME280;43656;57.746;11.780;2023-04-27T01:34:31;100731.59;;;8.50;58.09
57827;BME280;43656;57.746;11.780;2023-04-27T01:36:57;100746.94;;;8.56;57.90
57827;BME280;43656;57.746;11.780;2023-04-27T01:39:22;100748.34;;;8.52;57.94
57827;BME280;43656;57.746;11.780;2023-04-27T01:41:48;100750.16;;;8.36;58.35
57827;BME280;43656;57.746;11.780;2023-04-27T01:44:13;100745.81;;;8.35;57.71
57827;BME280;43656;57.746;11.780;2023-04-27T01:46:39;100744.44;;;8.24;58.33
57827;BME280;43656;57.746;11.780;2023-04-27T01:49:05;100748.78;;;8.40;57.37
57827;BME280;43656;57.746;11.780;2023-04-27T01:51:30;100747.97;;;8.40;58.95
57827;BME280;43656;57.746;11.780;2023-04-27T01:53:57;100736.50;;;8.31;58.45
57827;BME280;43656;57.746;11.780;2023-04-27T01:56:22;100734.34;;;8.27;58.03
57827;BME280;43656;57.746;11.780;2023-04-27T01:58:48;100745.06;;;8.56;57.45
57827;BME280;43656;57.746;11.780;2023-04-27T02:01:13;100740.13;;;8.38;57.04
57827;BME280;43656;57.746;11.780;2023-04-27T02:03:40;100741.44;;;8.64;57.06
57827;BME280;43656;57.746;11.780;2023-04-27T02:06:06;100752.28;;;8.56;58.20
57827;BME280;43656;57.746;11.780;2023-04-27T02:08:33;100712.22;;;8.54;57.64
57827;BME280;43656;57.746;11.780;2023-04-27T02:10:58;100719.63;;;8.67;56.84
57827;BME280;43656;57.746;11.780;2023-04-27T02:13:24;100724.19;;;8.52;57.09
57827;BME280;43656;57.746;11.780;2023-04-27T02:15:49;100739.53;;;8.58;57.08
57827;BME280;43656;57.746;11.780;2023-04-27T02:18:15;100744.91;;;8.58;56.62
57827;BME280;43656;57.746;11.780;2023-04-27T02:20:40;100741.53;;;8.70;56.53
57827;BME280;43656;57.746;11.780;2023-04-27T02:23:06;100742.75;;;8.68;57.47
57827;BME280;43656;57.746;11.780;2023-04-27T02:25:32;100725.75;;;8.46;58.19
57827;BME280;43656;57.746;11.780;2023-04-27T02:28:00;100746.34;;;8.60;58.13
57827;BME280;43656;57.746;11.780;2023-04-27T02:30:25;100752.19;;;8.64;58.26
57827;BME280;43656;57.746;11.780;2023-04-27T02:32:51;100757.53;;;8.64;57.83
57827;BME280;43656;57.746;11.780;2023-04-27T02:35:17;100748.88;;;8.62;58.04
57827;BME280;43656;57.746;11.780;2023-04-27T02:37:42;100731.97;;;8.46;57.41
57827;BME280;43656;57.746;11.780;2023-04-27T02:40:08;100754.84;;;8.64;57.41
57827;BME280;43656;57.746;11.780;2023-04-27T02:42:34;100741.00;;;8.60;57.53
57827;BME280;43656;57.746;11.780;2023-04-27T02:44:59;100730.22;;;8.39;58.67
57827;BME280;43656;57.746;11.780;2023-04-27T02:47:25;100736.78;;;8.51;58.23
57827;BME280;43656;57.746;11.780;2023-04-27T02:49:51;100749.69;;;8.47;58.49
57827;BME280;43656;57.746;11.780;2023-04-27T02:52:17;100757.16;;;8.67;58.79
57827;BME280;43656;57.746;11.780;2023-04-27T02:54:42;100760.50;;;8.69;60.35
57827;BME280;43656;57.746;11.780;2023-04-27T02:57:08;100749.63;;;8.56;60.82
57827;BME280;43656;57.746;11.780;2023-04-27T02:59:33;100747.22;;;8.46;60.77
57827;BME280;43656;57.746;11.780;2023-04-27T03:01:58;100754.22;;;8.32;60.72
57827;BME280;43656;57.746;11.780;2023-04-27T03:04:24;100747.38;;;8.30;60.68
57827;BME280;43656;57.746;11.780;2023-04-27T03:06:49;100755.25;;;8.31;61.31
57827;BME280;43656;57.746;11.780;2023-04-27T03:09:15;100752.84;;;8.36;61.31
57827;BME280;43656;57.746;11.780;2023-04-27T03:11:40;100749.00;;;8.39;60.68
57827;BME280;43656;57.746;11.780;2023-04-27T03:14:06;100742.59;;;8.25;60.07
57827;BME280;43656;57.746;11.780;2023-04-27T03:16:31;100742.44;;;8.41;59.25
57827;BME280;43656;57.746;11.780;2023-04-27T03:18:57;100746.81;;;8.64;58.91
57827;BME280;43656;57.746;11.780;2023-04-27T03:21:23;100760.06;;;8.65;59.59
57827;BME280;43656;57.746;11.780;2023-04-27T03:23:48;100733.03;;;8.37;59.57
57827;BME280;43656;57.746;11.780;2023-04-27T03:26:14;100760.69;;;8.23;59.97
57827;BME280;43656;57.746;11.780;2023-04-27T03:28:39;100749.50;;;8.19;60.46
57827;BME280;43656;57.746;11.780;2023-04-27T03:31:09;100723.91;;;8.17;60.40
57827;BME280;43656;57.746;11.780;2023-04-27T03:33:35;100759.16;;;8.43;60.15
57827;BME280;43656;57.746;11.780;2023-04-27T03:36:02;100764.59;;;8.50;60.07
57827;BME280;43656;57.746;11.780;2023-04-27T03:38:29;100766.53;;;8.56;59.78
57827;BME280;43656;57.746;11.780;2023-04-27T03:40:55;100758.97;;;8.45;59.80
57827;BME280;43656;57.746;11.780;2023-04-27T03:43:21;100762.19;;;8.40;58.96
57827;BME280;43656;57.746;11.780;2023-04-27T03:45:47;100766.19;;;8.44;59.53
57827;BME280;43656;57.746;11.780;2023-04-27T03:48:12;100762.03;;;8.42;59.63
57827;BME280;43656;57.746;11.780;2023-04-27T03:50:38;100771.81;;;8.35;59.98
57827;BME280;43656;57.746;11.780;2023-04-27T03:53:04;100770.53;;;8.45;60.42
57827;BME280;43656;57.746;11.780;2023-04-27T03:55:29;100774.50;;;8.50;60.25
57827;BME280;43656;57.746;11.780;2023-04-27T03:57:55;100773.13;;;8.39;60.02
57827;BME280;43656;57.746;11.780;2023-04-27T04:00:21;100749.06;;;8.45;58.62
57827;BME280;43656;57.746;11.780;2023-04-27T04:02:47;100768.25;;;9.15;58.09
57827;BME280;43656;57.746;11.780;2023-04-27T04:05:12;100775.44;;;9.51;56.56
57827;BME280;43656;57.746;11.780;2023-04-27T04:07:39;100776.31;;;9.36;56.24
57827;BME280;43656;57.746;11.780;2023-04-27T04:10:08;100787.28;;;9.20;57.38
57827;BME280;43656;57.746;11.780;2023-04-27T04:12:34;100759.09;;;8.73;58.91
57827;BME280;43656;57.746;11.780;2023-04-27T04:15:00;100749.91;;;8.46;58.42
57827;BME280;43656;57.746;11.780;2023-04-27T04:17:25;100786.69;;;8.67;59.00
57827;BME280;43656;57.746;11.780;2023-04-27T04:19:51;100785.09;;;8.73;58.25
57827;BME280;43656;57.746;11.780;2023-04-27T04:22:16;100783.25;;;8.73;58.02
57827;BME280;43656;57.746;11.780;2023-04-27T04:24:42;100792.31;;;8.72;57.92
57827;BME280;43656;57.746;11.780;2023-04-27T04:27:08;100788.72;;;8.65;58.50
57827;BME280;43656;57.746;11.780;2023-04-27T04:29:33;100775.41;;;8.57;58.80
57827;BME280;43656;57.746;11.780;2023-04-27T04:31:59;100789.53;;;8.80;59.18
57827;BME280;43656;57.746;11.780;2023-04-27T04:34:24;100770.13;;;8.78;59.19
57827;BME280;43656;57.746;11.780;2023-04-27T04:36:50;100790.28;;;8.59;59.86
57827;BME280;43656;57.746;11.780;2023-04-27T04:39:16;100791.28;;;8.73;60.44
57827;BME280;43656;57.746;11.780;2023-04-27T04:41:44;100783.31;;;8.80;58.19
57827;BME280;43656;57.746;11.780;2023-04-27T04:44:10;100754.16;;;8.40;58.45
57827;BME280;43656;57.746;11.780;2023-04-27T04:46:36;100778.94;;;8.42;59.83
57827;BME280;43656;57.746;11.780;2023-04-27T04:49:03;100795.56;;;8.53;59.51
57827;BME280;43656;57.746;11.780;2023-04-27T04:51:28;100800.41;;;8.93;58.04
57827;BME280;43656;57.746;11.780;2023-04-27T04:53:55;100784.06;;;8.74;57.72
57827;BME280;43656;57.746;11.780;2023-04-27T04:56:20;100803.09;;;8.93;57.79
57827;BME280;43656;57.746;11.780;2023-04-27T04:58:46;100796.91;;;8.93;56.72
57827;BME280;43656;57.746;11.780;2023-04-27T05:01:11;100805.28;;;10.40;53.40
57827;BME280;43656;57.746;11.780;2023-04-27T05:03:37;100814.03;;;10.55;52.82
57827;BME280;43656;57.746;11.780;2023-04-27T05:06:02;100811.34;;;9.71;55.52
57827;BME280;43656;57.746;11.780;2023-04-27T05:08:28;100814.16;;;9.41;56.19
57827;BME280;43656;57.746;11.780;2023-04-27T05:10:53;100818.88;;;9.18;56.46
57827;BME280;43656;57.746;11.780;2023-04-27T05:13:19;100815.75;;;9.14;56.70
57827;BME280;43656;57.746;11.780;2023-04-27T05:15:45;100817.41;;;9.15;56.65
57827;BME280;43656;57.746;11.780;2023-04-27T05:18:11;100816.28;;;9.10;56.94
57827;BME280;43656;57.746;11.780;2023-04-27T05:20:37;100811.72;;;8.89;57.42
57827;BME280;43656;57.746;11.780;2023-04-27T05:23:03;100814.16;;;9.41;57.12
57827;BME280;43656;57.746;11.780;2023-04-27T05:25:32;100813.13;;;9.43;55.68
57827;BME280;43656;57.746;11.780;2023-04-27T05:27:58;100821.72;;;9.31;57.27
57827;BME280;43656;57.746;11.780;2023-04-27T05:30:24;100795.44;;;9.48;55.32
57827;BME280;43656;57.746;11.780;2023-04-27T05:32:49;100819.63;;;9.98;54.52
57827;BME280;43656;57.746;11.780;2023-04-27T05:35:15;100816.78;;;9.78;55.12
57827;BME280;43656;57.746;11.780;2023-04-27T05:37:40;100825.16;;;9.68;54.93
57827;BME280;43656;57.746;11.780;2023-04-27T05:40:07;100813.44;;;9.33;55.96
57827;BME280;43656;57.746;11.780;2023-04-27T05:42:34;100827.16;;;9.38;56.06
57827;BME280;43656;57.746;11.780;2023-04-27T05:45:00;100826.78;;;9.41;54.90
57827;BME280;43656;57.746;11.780;2023-04-27T05:47:27;100824.41;;;9.53;55.45
57827;BME280;43656;57.746;11.780;2023-04-27T05:49:52;100818.81;;;9.33;55.31
57827;BME280;43656;57.746;11.780;2023-04-27T05:52:21;100832.53;;;9.81;54.84
57827;BME280;43656;57.746;11.780;2023-04-27T05:54:48;100809.09;;;9.53;55.20
57827;BME280;43656;57.746;11.780;2023-04-27T05:57:14;100830.63;;;9.17;56.19
57827;BME280;43656;57.746;11.780;2023-04-27T05:59:42;100830.47;;;9.40;56.27
57827;BME280;43656;57.746;11.780;2023-04-27T06:02:07;100833.41;;;9.45;55.99
57827;BME280;43656;57.746;11.780;2023-04-27T06:04:33;100837.28;;;9.57;54.91
57827;BME280;43656;57.746;11.780;2023-04-27T06:07:00;100843.38;;;9.73;55.12
57827;BME280;43656;57.746;11.780;2023-04-27T06:09:29;100841.03;;;9.63;56.40
57827;BME280;43656;57.746;11.780;2023-04-27T06:11:55;100826.50;;;10.00;55.35
57827;BME280;43656;57.746;11.780;2023-04-27T06:14:22;100832.44;;;10.24;54.74
57827;BME280;43656;57.746;11.780;2023-04-27T06:16:48;100835.50;;;9.93;55.62
57827;BME280;43656;57.746;11.780;2023-04-27T06:19:13;100849.06;;;10.06;56.29
57827;BME280;43656;57.746;11.780;2023-04-27T06:21:39;100854.97;;;9.95;55.47
57827;BME280;43656;57.746;11.780;2023-04-27T06:24:05;100821.16;;;10.07;54.35
57827;BME280;43656;57.746;11.780;2023-04-27T06:26:30;100864.28;;;10.48;53.95
57827;BME280;43656;57.746;11.780;2023-04-27T06:28:56;100831.53;;;10.10;54.51
57827;BME280;43656;57.746;11.780;2023-04-27T06:31:21;100844.53;;;9.85;54.54
57827;BME280;43656;57.746;11.780;2023-04-27T06:33:47;100850.56;;;10.37;54.27
57827;BME280;43656;57.746;11.780;2023-04-27T06:36:12;100853.91;;;10.17;55.00
57827;BME280;43656;57.746;11.780;2023-04-27T06:38:37;100856.72;;;10.09;54.00
57827;BME280;43656;57.746;11.780;2023-04-27T06:41:03;100853.91;;;9.68;55.15
57827;BME280;43656;57.746;11.780;2023-04-27T06:43:29;100853.31;;;9.72;54.08
57827;BME280;43656;57.746;11.780;2023-04-27T06:45:55;100831.25;;;10.05;54.07
57827;BME280;43656;57.746;11.780;2023-04-27T06:48:20;100861.31;;;9.87;54.66
57827;BME280;43656;57.746;11.780;2023-04-27T06:50:46;100856.19;;;9.92;54.77
57827;BME280;43656;57.746;11.780;2023-04-27T06:53:12;100860.59;;;9.78;54.67
57827;BME280;43656;57.746;11.780;2023-04-27T06:55:38;100860.72;;;9.49;54.07
57827;BME280;43656;57.746;11.780;2023-04-27T06:58:03;100853.75;;;9.54;53.79
57827;BME280;43656;57.746;11.780;2023-04-27T07:00:29;100838.84;;;9.73;52.65
57827;BME280;43656;57.746;11.780;2023-04-27T07:02:55;100869.81;;;9.91;53.19
57827;BME280;43656;57.746;11.780;2023-04-27T07:05:21;100863.50;;;9.77;52.98
57827;BME280;43656;57.746;11.780;2023-04-27T07:07:46;100874.44;;;9.75;53.78
57827;BME280;43656;57.746;11.780;2023-04-27T07:10:12;100853.09;;;9.95;53.16
57827;BME280;43656;57.746;11.780;2023-04-27T07:12:38;100875.72;;;9.58;54.60
57827;BME280;43656;57.746;11.780;2023-04-27T07:15:04;100876.59;;;9.65;53.92
57827;BME280;43656;57.746;11.780;2023-04-27T07:17:31;100892.72;;;9.65;55.23
57827;BME280;43656;57.746;11.780;2023-04-27T07:19:57;100853.94;;;9.31;53.75
57827;BME280;43656;57.746;11.780;2023-04-27T07:22:22;100865.28;;;9.33;55.68
57827;BME280;43656;57.746;11.780;2023-04-27T07:24:49;100896.97;;;9.38;56.58
57827;BME280;43656;57.746;11.780;2023-04-27T07:27:14;100895.69;;;9.70;54.14
57827;BME280;43656;57.746;11.780;2023-04-27T07:29:40;100886.34;;;9.87;53.97
57827;BME280;43656;57.746;11.780;2023-04-27T07:32:07;100855.41;;;9.55;52.34
57827;BME280;43656;57.746;11.780;2023-04-27T07:34:33;100891.59;;;9.74;54.37
57827;BME280;43656;57.746;11.780;2023-04-27T07:36:59;100899.91;;;9.43;53.30
57827;BME280;43656;57.746;11.780;2023-04-27T07:39:25;100882.72;;;9.59;53.50
57827;BME280;43656;57.746;11.780;2023-04-27T07:41:51;100902.47;;;9.87;53.70
57827;BME280;43656;57.746;11.780;2023-04-27T07:44:17;100903.47;;;10.08;51.49
57827;BME280;43656;57.746;11.780;2023-04-27T07:46:44;100895.03;;;10.11;51.61
57827;BME280;43656;57.746;11.780;2023-04-27T07:49:12;100913.22;;;10.30;53.31
57827;BME280;43656;57.746;11.780;2023-04-27T07:51:38;100904.13;;;10.10;51.82
57827;BME280;43656;57.746;11.780;2023-04-27T07:54:04;100906.75;;;10.03;51.86
57827;BME280;43656;57.746;11.780;2023-04-27T07:56:29;100921.38;;;10.22;52.00
57827;BME280;43656;57.746;11.780;2023-04-27T07:58:55;100927.78;;;10.21;52.01
57827;BME280;43656;57.746;11.780;2023-04-27T08:01:21;100926.84;;;10.29;52.40
57827;BME280;43656;57.746;11.780;2023-04-27T08:03:46;100899.13;;;10.07;52.50
57827;BME280;43656;57.746;11.780;2023-04-27T08:06:12;100936.00;;;10.34;52.70
57827;BME280;43656;57.746;11.780;2023-04-27T08:08:37;100933.91;;;10.30;51.94
57827;BME280;43656;57.746;11.780;2023-04-27T08:11:02;100945.06;;;10.12;52.36
57827;BME280;43656;57.746;11.780;2023-04-27T08:13:28;100949.56;;;10.26;51.58
57827;BME280;43656;57.746;11.780;2023-04-27T08:15:53;100925.38;;;10.05;51.99
57827;BME280;43656;57.746;11.780;2023-04-27T08:18:24;100947.19;;;9.95;52.07
57827;BME280;43656;57.746;11.780;2023-04-27T08:20:49;100950.53;;;9.97;51.60
57827;BME280;43656;57.746;11.780;2023-04-27T08:23:15;100917.03;;;9.78;52.59
57827;BME280;43656;57.746;11.780;2023-04-27T08:25:40;100948.47;;;9.78;52.56
57827;BME280;43656;57.746;11.780;2023-04-27T08:28:07;100956.28;;;10.16;52.17
57827;BME280;43656;57.746;11.780;2023-04-27T08:30:34;100950.09;;;10.37;51.70
57827;BME280;43656;57.746;11.780;2023-04-27T08:33:00;100950.56;;;10.25;51.16
57827;BME280;43656;57.746;11.780;2023-04-27T08:35:25;100964.94;;;10.54;51.11
57827;BME280;43656;57.746;11.780;2023-04-27T08:37:51;100970.00;;;10.42;51.33
57827;BME280;43656;57.746;11.780;2023-04-27T08:40:18;100964.75;;;10.62;51.90
57827;BME280;43656;57.746;11.780;2023-04-27T08:42:58;100957.53;;;10.34;52.16
57827;BME280;43656;57.746;11.780;2023-04-27T08:45:24;100966.63;;;10.33;51.92
57827;BME280;43656;57.746;11.780;2023-04-27T08:47:50;100971.13;;;9.90;52.26
57827;BME280;43656;57.746;11.780;2023-04-27T08:50:16;100953.31;;;9.68;52.74
57827;BME280;43656;57.746;11.780;2023-04-27T08:52:46;100968.00;;;10.08;51.72
57827;BME280;43656;57.746;11.780;2023-04-27T08:55:11;100963.19;;;10.25;51.71
57827;BME280;43656;57.746;11.780;2023-04-27T08:57:37;100973.75;;;10.76;49.28
57827;BME280;43656;57.746;11.780;2023-04-27T09:00:03;100974.97;;;10.45;51.51
57827;BME280;43656;57.746;11.780;2023-04-27T09:02:47;100983.41;;;9.99;50.13
57827;BME280;43656;57.746;11.780;2023-04-27T09:05:21;100975.50;;;9.76;50.98
57827;BME280;43656;57.746;11.780;2023-04-27T09:08:00;100986.00;;;10.29;50.02
57827;BME280;43656;57.746;11.780;2023-04-27T09:10:27;100991.59;;;10.27;50.10
57827;BME280;43656;57.746;11.780;2023-04-27T09:12:59;100976.44;;;9.83;51.45
57827;BME280;43656;57.746;11.780;2023-04-27T09:15:26;100987.34;;;9.97;53.08
57827;BME280;43656;57.746;11.780;2023-04-27T09:17:57;100996.53;;;9.87;52.00
57827;BME280;43656;57.746;11.780;2023-04-27T09:20:23;100994.06;;;10.50;49.48
57827;BME280;43656;57.746;11.780;2023-04-27T09:22:51;100998.56;;;10.43;50.34
57827;BME280;43656;57.746;11.780;2023-04-27T09:25:27;100980.03;;;10.55;50.20
57827;BME280;43656;57.746;11.780;2023-04-27T09:27:54;101003.41;;;10.54;49.19
57827;BME280;43656;57.746;11.780;2023-04-27T09:30:20;101007.16;;;10.53;50.13
57827;BME280;43656;57.746;11.780;2023-04-27T09:32:57;101009.84;;;10.53;48.84
57827;BME280;43656;57.746;11.780;2023-04-27T09:35:31;101005.72;;;10.86;47.63
57827;BME280;43656;57.746;11.780;2023-04-27T09:37:57;101003.81;;;11.08;47.37
57827;BME280;43656;57.746;11.780;2023-04-27T09:40:24;100996.81;;;10.85;47.94
57827;BME280;43656;57.746;11.780;2023-04-27T09:42:53;101006.53;;;10.30;49.24
57827;BME280;43656;57.746;11.780;2023-04-27T09:45:19;101018.56;;;10.34;50.78
57827;BME280;43656;57.746;11.780;2023-04-27T09:47:45;101010.53;;;10.41;50.26
57827;BME280;43656;57.746;11.780;2023-04-27T09:50:12;101006.16;;;10.18;50.49
57827;BME280;43656;57.746;11.780;2023-04-27T09:52:38;101015.41;;;9.94;51.30
57827;BME280;43656;57.746;11.780;2023-04-27T09:55:07;101020.50;;;10.04;50.27
57827;BME280;43656;57.746;11.780;2023-04-27T09:57:54;101028.44;;;10.12;51.33
57827;BME280;43656;57.746;11.780;2023-04-27T10:00:37;101032.69;;;10.06;52.63
57827;BME280;43656;57.746;11.780;2023-04-27T10:03:32;101015.34;;;10.09;50.44
57827;BME280;43656;57.746;11.780;2023-04-27T10:09:04;101025.34;;;9.94;52.58
57827;BME280;43656;57.746;11.780;2023-04-27T10:11:40;101038.41;;;9.97;52.67
57827;BME280;43656;57.746;11.780;2023-04-27T10:14:13;101040.00;;;10.49;51.22
57827;BME280;43656;57.746;11.780;2023-04-27T10:16:57;101038.91;;;10.65;50.08
57827;BME280;43656;57.746;11.780;2023-04-27T10:19:24;101035.25;;;10.51;50.88
57827;BME280;43656;57.746;11.780;2023-04-27T10:21:56;101021.91;;;10.21;50.96
57827;BME280;43656;57.746;11.780;2023-04-27T10:24:33;101030.34;;;10.18;51.66
57827;BME280;43656;57.746;11.780;2023-04-27T10:27:05;101043.81;;;10.18;52.00
57827;BME280;43656;57.746;11.780;2023-04-27T10:29:35;101045.66;;;10.54;51.85
57827;BME280;43656;57.746;11.780;2023-04-27T10:32:05;101045.31;;;10.64;49.29
57827;BME280;43656;57.746;11.780;2023-04-27T10:34:33;101038.16;;;10.28;48.83
57827;BME280;43656;57.746;11.780;2023-04-27T10:37:10;101050.44;;;10.58;48.02
57827;BME280;43656;57.746;11.780;2023-04-27T10:39:38;101035.97;;;10.60;48.69
57827;BME280;43656;57.746;11.780;2023-04-27T10:42:04;101054.66;;;10.68;50.55
57827;BME280;43656;57.746;11.780;2023-04-27T10:44:31;101023.91;;;10.77;46.88
57827;BME280;43656;57.746;11.780;2023-04-27T10:46:59;101027.34;;;10.99;47.88
57827;BME280;43656;57.746;11.780;2023-04-27T10:49:29;101038.97;;;10.71;46.86
57827;BME280;43656;57.746;11.780;2023-04-27T10:51:57;101056.13;;;10.49;49.44
57827;BME280;43656;57.746;11.780;2023-04-27T10:54:27;101058.75;;;11.13;46.59
57827;BME280;43656;57.746;11.780;2023-04-27T10:56:53;101054.34;;;11.05;47.41
57827;BME280;43656;57.746;11.780;2023-04-27T10:59:20;101034.94;;;10.61;48.45
57827;BME280;43656;57.746;11.780;2023-04-27T11:01:47;101063.44;;;10.76;48.79
57827;BME280;43656;57.746;11.780;2023-04-27T11:04:14;101054.59;;;10.61;49.49
57827;BME280;43656;57.746;11.780;2023-04-27T11:06:41;101064.84;;;10.51;48.54
57827;BME280;43656;57.746;11.780;2023-04-27T11:09:07;101069.03;;;10.17;48.85
57827;BME280;43656;57.746;11.780;2023-04-27T11:11:34;101069.06;;;10.39;47.51
57827;BME280;43656;57.746;11.780;2023-04-27T11:14:00;101082.66;;;10.73;46.11
57827;BME280;43656;57.746;11.780;2023-04-27T11:16:28;101074.91;;;10.64;47.93
57827;BME280;43656;57.746;11.780;2023-04-27T11:18:53;101082.91;;;10.78;48.62
57827;BME280;43656;57.746;11.780;2023-04-27T11:21:19;101086.53;;;11.14;46.48
57827;BME280;43656;57.746;11.780;2023-04-27T11:23:46;101063.44;;;10.76;47.95
57827;BME280;43656;57.746;11.780;2023-04-27T11:31:25;101088.72;;;11.03;46.25
57827;BME280;43656;57.746;11.780;2023-04-27T11:33:51;101087.78;;;10.90;44.84
57827;BME280;43656;57.746;11.780;2023-04-27T11:36:18;101075.78;;;11.20;45.52
57827;BME280;43656;57.746;11.780;2023-04-27T11:38:45;101100.47;;;10.74;47.64
57827;BME280;43656;57.746;11.780;2023-04-27T11:41:10;101093.38;;;10.67;47.88
57827;BME280;43656;57.746;11.780;2023-04-27T11:43:40;101106.91;;;11.01;47.29
57827;BME280;43656;57.746;11.780;2023-04-27T11:46:06;101109.00;;;11.27;46.16
57827;BME280;43656;57.746;11.780;2023-04-27T11:48:37;101109.44;;;11.31;45.65
57827;BME280;43656;57.746;11.780;2023-04-27T11:51:04;101106.19;;;11.14;46.96
57827;BME280;43656;57.746;11.780;2023-04-27T11:53:38;101108.94;;;10.71;46.72
57827;BME280;43656;57.746;11.780;2023-04-27T11:56:05;101107.72;;;10.74;47.10
57827;BME280;43656;57.746;11.780;2023-04-27T11:58:33;101119.13;;;10.54;48.11
57827;BME280;43656;57.746;11.780;2023-04-27T12:00:59;101119.75;;;10.99;48.03
57827;BME280;43656;57.746;11.780;2023-04-27T12:03:25;101107.66;;;10.67;47.47
57827;BME280;43656;57.746;11.780;2023-04-27T12:05:52;101129.00;;;11.18;45.94
57827;BME280;43656;57.746;11.780;2023-04-27T12:08:18;101078.34;;;11.00;44.71
57827;BME280;43656;57.746;11.780;2023-04-27T12:10:44;101132.06;;;11.71;43.64
57827;BME280;43656;57.746;11.780;2023-04-27T12:13:10;101133.97;;;11.43;44.25
57827;BME280;43656;57.746;11.780;2023-04-27T12:15:36;101115.47;;;11.68;44.04
57827;BME280;43656;57.746;11.780;2023-04-27T12:18:01;101139.53;;;11.69;43.83
57827;BME280;43656;57.746;11.780;2023-04-27T12:20:27;101137.47;;;11.71;42.77
57827;BME280;43656;57.746;11.780;2023-04-27T12:22:53;101153.81;;;11.63;42.76
57827;BME280;43656;57.746;11.780;2023-04-27T12:25:18;101148.94;;;11.52;43.21
57827;BME280;43656;57.746;11.780;2023-04-27T12:27:44;101137.00;;;11.61;43.60
57827;BME280;43656;57.746;11.780;2023-04-27T12:30:12;101158.25;;;11.77;43.65
57827;BME280;43656;57.746;11.780;2023-04-27T12:32:38;101153.66;;;12.06;43.49
57827;BME280;43656;57.746;11.780;2023-04-27T12:35:05;101151.97;;;12.05;43.37
57827;BME280;43656;57.746;11.780;2023-04-27T12:37:31;101166.84;;;11.88;43.65
57827;BME280;43656;57.746;11.780;2023-04-27T12:39:56;101162.41;;;11.80;42.87
57827;BME280;43656;57.746;11.780;2023-04-27T12:42:22;101156.38;;;11.43;42.76
57827;BME280;43656;57.746;11.780;2023-04-27T12:44:49;101167.69;;;11.60;42.77
57827;BME280;43656;57.746;11.780;2023-04-27T12:47:16;101164.38;;;11.93;42.88
57827;BME280;43656;57.746;11.780;2023-04-27T12:49:42;101165.19;;;12.35;41.62
57827;BME280;43656;57.746;11.780;2023-04-27T12:52:07;101150.75;;;12.08;41.89